createdAt,value
2022-09-23T00:01:10.988Z,62.52
2022-09-23T00:03:42.102Z,62.61
2022-09-23T00:06:10.979Z,62.60
2022-09-23T00:08:38.480Z,62.65
2022-09-23T00:11:08.269Z,62.66
2022-09-23T00:13:37.112Z,62.37
2022-09-23T00:16:06.938Z,62.61
2022-09-23T00:18:33.951Z,62.80
2022-09-23T00:21:10.215Z,62.71
2022-09-23T00:23:38.091Z,62.59
2022-09-23T00:26:06.528Z,62.65
2022-09-23T00:28:34.556Z,62.68
2022-09-23T00:31:13.126Z,62.53
2022-09-23T00:33:40.998Z,62.68
2022-09-23T00:36:11.380Z,62.58
2022-09-23T00:38:38.846Z,62.67
2022-09-23T00:41:06.664Z,62.52
2022-09-23T00:43:57.244Z,62.69
2022-09-23T00:46:28.179Z,62.70
2022-09-23T00:49:03.161Z,62.67
2022-09-23T00:51:38.865Z,62.88
2022-09-23T00:54:06.851Z,62.86
2022-09-23T00:56:35.572Z,62.89
2022-09-23T00:59:03.278Z,62.78
2022-09-23T01:01:30.194Z,62.88
2022-09-23T01:03:58.056Z,63.00
2022-09-23T01:06:25.641Z,62.98
2022-09-23T01:08:52.959Z,62.73
2022-09-23T01:11:29.073Z,62.73
2022-09-23T01:14:14.372Z,62.79
2022-09-23T01:17:03.386Z,62.80
2022-09-23T01:20:20.075Z,62.96
2022-09-23T01:22:55.457Z,62.93
2022-09-23T01:25:49.499Z,62.84
2022-09-23T01:28:38.179Z,62.88
2022-09-23T01:31:07.862Z,62.81
2022-09-23T01:33:34.913Z,63.05
2022-09-23T01:36:19.344Z,62.88
2022-09-23T01:39:03.738Z,62.86
2022-09-23T01:42:04.762Z,62.83
2022-09-23T01:44:43.910Z,62.82
2022-09-23T01:47:19.428Z,62.74
2022-09-23T01:50:03.667Z,63.06
2022-09-23T01:52:47.472Z,63.17
2022-09-23T01:55:26.007Z,62.90
2022-09-23T01:58:03.564Z,63.13
2022-09-23T02:00:35.151Z,63.46
2022-09-23T02:03:07.847Z,62.98
2022-09-23T02:05:43.974Z,62.97
2022-09-23T02:08:10.772Z,63.16
2022-09-23T02:10:44.843Z,63.21
2022-09-23T02:13:32.859Z,62.97
2022-09-23T02:16:05.400Z,62.77
2022-09-23T02:18:42.290Z,62.91
2022-09-23T02:21:10.074Z,63.26
2022-09-23T02:23:43.291Z,63.18
2022-09-23T02:26:30.427Z,63.06
2022-09-23T02:29:09.978Z,63.22
2022-09-23T02:31:43.069Z,63.00
2022-09-23T02:34:15.992Z,62.97
2022-09-23T02:36:57.411Z,63.20
2022-09-23T02:39:31.500Z,63.03
2022-09-23T02:42:07.211Z,63.21
2022-09-23T02:44:34.405Z,63.30
2022-09-23T02:47:01.411Z,63.28
2022-09-23T02:49:30.011Z,63.15
2022-09-23T02:52:00.421Z,63.21
2022-09-23T02:54:29.285Z,63.33
2022-09-23T02:56:57.589Z,63.23
2022-09-23T02:59:24.624Z,63.29
2022-09-23T03:02:17.689Z,63.25
2022-09-23T03:04:50.772Z,63.20
2022-09-23T03:07:20.284Z,63.47
2022-09-23T03:10:08.103Z,63.30
2022-09-23T03:12:53.153Z,63.41
2022-09-23T03:15:45.625Z,63.28
2022-09-23T03:18:31.889Z,63.41
2022-09-23T03:21:07.784Z,63.54
2022-09-23T03:23:38.742Z,63.30
2022-09-23T03:26:14.498Z,63.41
2022-09-23T03:28:44.622Z,63.53
2022-09-23T03:31:15.571Z,63.44
2022-09-23T03:33:48.296Z,63.49
2022-09-23T03:36:36.992Z,63.33
2022-09-23T03:39:11.965Z,63.44
2022-09-23T03:41:45.357Z,63.53
2022-09-23T03:44:12.322Z,63.57
2022-09-23T03:46:39.209Z,63.46
2022-09-23T03:49:15.677Z,63.62
2022-09-23T03:51:44.635Z,63.54
2022-09-23T03:54:11.970Z,63.48
2022-09-23T03:56:38.912Z,63.40
2022-09-23T03:59:05.776Z,63.48
2022-09-23T04:01:32.728Z,63.49
2022-09-23T04:04:00.392Z,63.42
2022-09-23T04:06:27.245Z,63.46
2022-09-23T04:08:54.111Z,63.37
2022-09-23T04:11:21.006Z,63.44
2022-09-23T04:13:47.953Z,63.49
2022-09-23T04:16:14.989Z,63.39
2022-09-23T04:18:41.864Z,63.47
2022-09-23T04:21:08.821Z,63.52
2022-09-23T04:23:35.782Z,63.33
2022-09-23T04:26:04.262Z,63.46
2022-09-23T04:28:31.124Z,63.36
2022-09-23T04:30:58.712Z,63.31
2022-09-23T04:33:26.214Z,63.27
2022-09-23T04:35:53.780Z,63.51
2022-09-23T04:38:20.720Z,63.59
2022-09-23T04:40:47.797Z,63.55
2022-09-23T04:43:16.681Z,63.64
2022-09-23T04:45:44.523Z,63.68
2022-09-23T04:48:12.983Z,63.72
2022-09-23T04:50:40.513Z,63.92
2022-09-23T04:53:08.404Z,63.79
2022-09-23T04:55:35.254Z,63.77
2022-09-23T04:58:02.185Z,63.94
2022-09-23T05:00:29.108Z,63.85
2022-09-23T05:02:55.967Z,64.07
2022-09-23T05:05:24.461Z,64.05
2022-09-23T05:07:51.721Z,61.53
2022-09-23T05:10:19.016Z,61.29
2022-09-23T05:12:45.898Z,62.96
2022-09-23T05:15:16.316Z,63.45
2022-09-23T05:17:43.712Z,63.35
2022-09-23T05:20:11.751Z,63.58
2022-09-23T05:22:38.570Z,63.81
2022-09-23T05:25:05.824Z,64.29
2022-09-23T05:27:32.698Z,64.33
2022-09-23T05:29:59.706Z,64.63
2022-09-23T05:32:26.597Z,64.76
2022-09-23T05:34:56.047Z,64.60
2022-09-23T05:37:23.511Z,64.85
2022-09-23T05:39:50.383Z,64.80
2022-09-23T05:42:18.508Z,64.55
2022-09-23T05:44:47.370Z,64.63
2022-09-23T05:47:14.639Z,64.69
2022-09-23T05:49:58.656Z,64.81
2022-09-23T05:52:26.742Z,64.89
2022-09-23T05:54:54.061Z,64.70
2022-09-23T05:57:21.744Z,64.56
2022-09-23T05:59:48.834Z,64.75
2022-09-23T06:02:15.889Z,64.82
2022-09-23T06:04:43.346Z,64.75
2022-09-23T06:07:11.784Z,64.61
2022-09-23T06:09:38.826Z,64.60
2022-09-23T06:12:06.616Z,62.56
2022-09-23T06:14:33.882Z,58.52
2022-09-23T06:17:00.754Z,58.72
2022-09-23T06:19:27.598Z,60.61
2022-09-23T06:21:54.493Z,62.02
2022-09-23T06:24:25.926Z,62.74
2022-09-23T06:26:56.139Z,63.20
2022-09-23T06:29:23.308Z,63.60
2022-09-23T06:31:50.724Z,63.59
2022-09-23T06:34:17.856Z,63.93
2022-09-23T06:36:46.440Z,63.85
2022-09-23T06:39:16.831Z,63.70
2022-09-23T06:41:45.579Z,63.79
2022-09-23T06:44:16.130Z,63.82
2022-09-23T06:46:43.890Z,63.97
2022-09-23T06:49:13.739Z,63.84
2022-09-23T06:51:41.448Z,64.04
2022-09-23T06:54:08.684Z,64.21
2022-09-23T06:56:39.561Z,64.11
2022-09-23T06:59:07.943Z,64.13
2022-09-23T07:01:35.343Z,62.42
2022-09-23T07:04:02.693Z,63.37
2022-09-23T07:06:29.577Z,63.96
2022-09-23T07:08:56.414Z,64.01
2022-09-23T07:11:23.717Z,62.83
2022-09-23T07:13:50.577Z,63.03
2022-09-23T07:16:17.604Z,63.45
2022-09-23T07:18:45.975Z,63.68
2022-09-23T07:21:18.208Z,63.94
2022-09-23T07:23:47.553Z,64.01
2022-09-23T07:26:19.199Z,64.01
2022-09-23T07:28:46.276Z,64.29
2022-09-23T07:31:17.034Z,64.20
2022-09-23T07:33:46.150Z,64.20
2022-09-23T07:36:15.507Z,64.22
2022-09-23T07:38:45.491Z,64.25
2022-09-23T07:41:16.300Z,64.26
2022-09-23T07:43:44.442Z,64.30
2022-09-23T07:46:14.672Z,64.32
2022-09-23T07:48:42.051Z,61.59
2022-09-23T07:51:19.371Z,62.37
2022-09-23T07:53:51.500Z,63.43
2022-09-23T07:56:20.497Z,64.07
2022-09-23T07:59:00.605Z,64.17
2022-09-23T08:01:33.431Z,64.30
2022-09-23T08:04:06.764Z,64.26
2022-09-23T08:06:34.122Z,64.25
2022-09-23T08:09:01.969Z,64.67
2022-09-23T08:11:29.146Z,64.57
2022-09-23T08:13:56.527Z,64.48
2022-09-23T08:16:23.470Z,64.55
2022-09-23T08:18:51.044Z,64.28
2022-09-23T08:21:22.439Z,64.54
2022-09-23T08:23:49.573Z,64.42
2022-09-23T08:26:21.533Z,64.70
2022-09-23T08:28:49.584Z,64.54
2022-09-23T08:31:16.625Z,64.81
2022-09-23T08:33:43.691Z,64.63
2022-09-23T08:36:10.884Z,64.48
2022-09-23T08:38:37.850Z,64.48
2022-09-23T08:41:30.805Z,64.60
2022-09-23T08:44:14.022Z,62.75
2022-09-23T08:46:47.005Z,63.11
2022-09-23T08:49:23.539Z,63.74
2022-09-23T08:51:55.360Z,64.00
2022-09-23T08:54:22.692Z,64.26
2022-09-23T08:56:52.666Z,64.56
2022-09-23T08:59:30.548Z,64.35
2022-09-23T09:02:05.848Z,64.55
2022-09-23T09:04:35.902Z,64.47
2022-09-23T09:07:35.114Z,64.49
2022-09-23T09:10:21.756Z,64.43
2022-09-23T09:13:11.090Z,64.61
2022-09-23T09:15:59.731Z,64.61
2022-09-23T09:18:29.156Z,64.72
2022-09-23T09:21:14.985Z,64.60
2022-09-23T09:24:00.470Z,64.68
2022-09-23T09:26:34.189Z,64.60
2022-09-23T09:29:31.189Z,64.75
2022-09-23T09:32:14.607Z,64.61
2022-09-23T09:34:55.031Z,64.86
2022-09-23T09:37:31.723Z,64.65
2022-09-23T09:39:59.119Z,64.69
2022-09-23T09:42:40.834Z,64.90
2022-09-23T09:45:38.962Z,64.87
2022-09-23T09:48:23.381Z,64.67
2022-09-23T09:50:52.440Z,64.81
2022-09-23T09:53:26.477Z,64.45
2022-09-23T09:56:16.050Z,63.48
2022-09-23T09:58:51.007Z,63.08
2022-09-23T10:01:38.516Z,62.76
2022-09-23T10:04:35.506Z,63.54
2022-09-23T10:07:05.727Z,63.62
2022-09-23T10:09:37.633Z,62.96
2022-09-23T10:12:18.807Z,63.15
2022-09-23T10:14:46.884Z,63.69
2022-09-23T10:17:23.542Z,63.61
2022-09-23T10:20:01.063Z,62.82
2022-09-23T10:22:33.382Z,63.14
2022-09-23T10:25:06.839Z,63.12
2022-09-23T10:27:36.177Z,62.96
2022-09-23T10:30:08.023Z,62.20
2022-09-23T10:35:14.335Z,63.73
2022-09-23T10:37:51.951Z,63.90
2022-09-23T10:40:49.345Z,64.32
2022-09-23T10:43:58.099Z,64.45
2022-09-23T10:46:39.311Z,64.46
2022-09-23T10:49:10.331Z,64.57
2022-09-23T10:51:44.406Z,64.87
2022-09-23T10:54:30.414Z,64.70
2022-09-23T10:57:48.077Z,65.06
2022-09-23T11:00:42.150Z,65.12
2022-09-23T11:03:27.701Z,65.18
2022-09-23T11:06:12.587Z,64.79
2022-09-23T11:08:58.369Z,65.15
2022-09-23T11:11:47.521Z,64.96
2022-09-23T11:14:33.090Z,65.14
2022-09-23T11:17:18.330Z,65.10
2022-09-23T11:20:18.969Z,65.18
2022-09-23T11:23:14.009Z,65.16
2022-09-23T11:25:44.081Z,65.23
2022-09-23T11:28:26.540Z,65.13
2022-09-23T11:31:26.965Z,65.12
2022-09-23T11:34:29.098Z,65.28
2022-09-23T11:37:14.292Z,65.26
2022-09-23T11:39:56.289Z,65.16
2022-09-23T11:42:58.482Z,65.03
2022-09-23T11:45:34.496Z,64.92
2022-09-23T11:48:09.715Z,64.89
2022-09-23T11:50:47.148Z,63.22
2022-09-23T11:53:33.155Z,63.55
2022-09-23T11:56:08.982Z,63.99
2022-09-23T11:58:46.783Z,64.37
2022-09-23T12:01:37.309Z,64.29
2022-09-23T12:04:23.441Z,64.40
2022-09-23T12:06:59.950Z,64.08
2022-09-23T12:09:57.246Z,64.32
2022-09-23T12:13:00.882Z,64.29
2022-09-23T12:15:33.791Z,64.26
2022-09-23T12:18:19.555Z,64.12
2022-09-23T12:21:06.728Z,64.27
2022-09-23T12:24:07.670Z,64.30
2022-09-23T12:26:35.590Z,64.46
2022-09-23T12:29:05.206Z,64.30
2022-09-23T12:31:40.375Z,64.25
2022-09-23T12:34:28.128Z,64.17
2022-09-23T12:37:05.011Z,64.21
2022-09-23T12:39:38.801Z,64.04
2022-09-23T12:42:15.230Z,64.05
2022-09-23T12:44:47.877Z,64.16
2022-09-23T12:47:14.944Z,64.05
2022-09-23T12:49:43.988Z,64.10
2022-09-23T12:52:16.722Z,64.11
2022-09-23T12:54:48.464Z,64.17
2022-09-23T12:57:35.261Z,64.35
2022-09-23T13:00:13.192Z,64.36
2022-09-23T13:03:13.757Z,64.36
2022-09-23T13:06:11.731Z,62.87
2022-09-23T13:08:41.112Z,63.54
2022-09-23T13:11:27.285Z,64.21
2022-09-23T13:13:56.699Z,64.27
2022-09-23T13:16:31.330Z,64.14
2022-09-23T13:19:02.804Z,64.39
2022-09-23T13:21:47.560Z,64.31
2022-09-23T13:24:34.830Z,64.25
2022-09-23T13:27:17.231Z,64.41
2022-09-23T13:29:51.850Z,64.29
2022-09-23T13:32:22.090Z,64.23
2022-09-23T13:35:16.647Z,64.53
2022-09-23T13:37:46.463Z,64.20
2022-09-23T13:40:19.478Z,64.32
2022-09-23T13:42:55.340Z,64.31
2022-09-23T13:45:24.673Z,64.36
2022-09-23T13:47:55.032Z,64.24
2022-09-23T13:50:24.022Z,64.25
2022-09-23T13:53:01.494Z,64.42
2022-09-23T13:55:30.140Z,64.28
2022-09-23T13:58:03.170Z,64.19
2022-09-23T14:00:35.939Z,64.16
2022-09-23T14:03:16.660Z,64.22
2022-09-23T14:05:44.298Z,64.33
2022-09-23T14:08:12.642Z,64.16
2022-09-23T14:10:43.223Z,64.20
2022-09-23T14:13:32.629Z,64.07
2022-09-23T14:16:02.978Z,64.05
2022-09-23T14:18:32.737Z,64.21
2022-09-23T14:20:59.765Z,64.35
2022-09-23T14:23:27.037Z,64.42
2022-09-23T14:25:55.258Z,64.24
2022-09-23T14:28:25.475Z,63.72
2022-09-23T14:30:57.557Z,63.49
2022-09-23T14:33:32.526Z,63.60
2022-09-23T14:36:30.096Z,63.28
2022-09-23T14:39:10.354Z,63.32
2022-09-23T14:41:40.283Z,62.58
2022-09-23T14:44:08.463Z,63.09
2022-09-23T14:46:38.275Z,62.57
2022-09-23T14:49:06.141Z,62.34
2022-09-23T14:52:01.319Z,62.93
2022-09-23T14:54:30.967Z,62.77
2022-09-23T14:56:58.069Z,62.11
2022-09-23T14:59:36.092Z,62.64
2022-09-23T15:02:39.542Z,62.57
2022-09-23T15:05:16.004Z,62.99
2022-09-23T15:07:49.562Z,63.05
2022-09-23T15:10:37.899Z,63.25
2022-09-23T15:13:14.814Z,63.36
2022-09-23T15:15:43.113Z,63.62
2022-09-23T15:18:23.000Z,63.42
2022-09-23T15:21:14.934Z,63.60
2022-09-23T15:23:41.828Z,63.67
2022-09-23T15:26:16.969Z,63.73
2022-09-23T15:28:45.269Z,63.66
2022-09-23T15:31:17.150Z,63.69
2022-09-23T15:33:45.320Z,63.64
2022-09-23T15:36:18.566Z,63.84
2022-09-23T15:38:46.529Z,63.81
2022-09-23T15:41:17.803Z,63.79
2022-09-23T15:43:45.713Z,63.94
2022-09-23T15:46:19.705Z,63.83
2022-09-23T15:48:58.650Z,63.68
2022-09-23T15:51:27.832Z,63.75
2022-09-23T15:53:55.990Z,63.99
2022-09-23T15:56:24.162Z,63.98
2022-09-23T15:58:51.627Z,63.89
2022-09-23T16:01:31.005Z,64.00
2022-09-23T16:04:00.536Z,63.85
2022-09-23T16:06:28.409Z,63.75
2022-09-23T16:08:56.080Z,63.96
2022-09-23T16:11:32.327Z,64.02
2022-09-23T16:14:01.419Z,63.82
2022-09-23T16:16:29.138Z,63.98
2022-09-23T16:18:56.425Z,63.87
2022-09-23T16:21:28.396Z,63.91
2022-09-23T16:23:55.797Z,64.09
2022-09-23T16:26:31.911Z,63.81
2022-09-23T16:28:59.479Z,63.82
2022-09-23T16:31:29.892Z,63.83
2022-09-23T16:33:58.111Z,63.96
2022-09-23T16:36:33.018Z,63.82
2022-09-23T16:39:03.312Z,64.07
2022-09-23T16:41:32.725Z,63.85
2022-09-23T16:44:01.456Z,63.94
2022-09-23T16:46:30.223Z,63.79
2022-09-23T16:48:58.565Z,63.97
2022-09-23T16:51:29.463Z,63.88
2022-09-23T16:53:58.878Z,64.08
2022-09-23T16:56:29.135Z,63.94
2022-09-23T16:58:57.608Z,64.04
2022-09-23T17:01:46.173Z,63.93
2022-09-23T17:04:15.331Z,64.04
2022-09-23T17:06:44.629Z,63.90
2022-09-23T17:09:12.328Z,64.02
2022-09-23T17:11:40.251Z,64.04
2022-09-23T17:14:07.516Z,64.20
2022-09-23T17:16:35.971Z,63.86
2022-09-23T17:19:08.604Z,63.96
2022-09-23T17:21:36.258Z,63.89
2022-09-23T17:24:03.483Z,63.68
2022-09-23T17:26:32.028Z,63.79
2022-09-23T17:29:02.040Z,63.63
2022-09-23T17:31:29.916Z,63.64
2022-09-23T17:33:57.320Z,63.57
2022-09-23T17:36:24.605Z,63.87
2022-09-23T17:38:53.877Z,63.55
2022-09-23T17:41:21.351Z,63.43
2022-09-23T17:43:48.663Z,63.50
2022-09-23T17:46:19.253Z,63.35
2022-09-23T17:48:47.279Z,63.82
2022-09-23T17:51:20.198Z,63.46
2022-09-23T17:53:48.798Z,63.61
2022-09-23T17:56:25.412Z,63.58
2022-09-23T17:58:53.870Z,63.72
2022-09-23T18:01:26.330Z,63.67
2022-09-23T18:03:55.271Z,63.71
2022-09-23T18:06:24.288Z,62.48
2022-09-23T18:08:52.321Z,60.40
2022-09-23T18:11:28.480Z,58.79
2022-09-23T18:13:57.916Z,60.61
2022-09-23T18:16:27.668Z,61.61
2022-09-23T18:19:00.565Z,62.03
2022-09-23T18:21:31.071Z,62.29
2022-09-23T18:24:21.418Z,61.58
2022-09-23T18:26:48.027Z,62.07
2022-09-23T18:29:16.491Z,62.32
2022-09-23T18:31:44.731Z,62.51
2022-09-23T18:34:13.424Z,62.58
2022-09-23T18:36:41.109Z,62.63
2022-09-23T18:39:11.021Z,62.68
2022-09-23T18:41:38.721Z,62.58
2022-09-23T18:44:06.932Z,62.64
2022-09-23T18:46:34.623Z,62.64
2022-09-23T18:49:20.672Z,62.58
2022-09-23T18:51:56.622Z,62.60
2022-09-23T18:54:26.907Z,62.45
2022-09-23T18:56:55.406Z,62.51
2022-09-23T18:59:28.577Z,62.71
2022-09-23T19:01:56.872Z,62.18
2022-09-23T19:04:26.013Z,62.53
2022-09-23T19:06:54.241Z,62.50
2022-09-23T19:09:21.244Z,63.05
2022-09-23T19:11:51.315Z,62.78
2022-09-23T19:14:18.260Z,62.44
2022-09-23T19:16:45.511Z,62.63
2022-09-23T19:19:12.679Z,63.04
2022-09-23T19:21:39.919Z,62.76
2022-09-23T19:24:08.535Z,62.20
2022-09-23T19:26:38.896Z,61.77
2022-09-23T19:29:08.619Z,62.13
2022-09-23T19:31:41.699Z,61.89
2022-09-23T19:34:16.354Z,62.09
2022-09-23T19:36:46.614Z,61.84
2022-09-23T19:39:19.215Z,61.62
2022-09-23T19:41:47.292Z,61.64
2022-09-23T19:44:15.208Z,61.84
2022-09-23T19:46:45.820Z,62.23
2022-09-23T19:49:13.714Z,62.24
2022-09-23T19:51:41.883Z,62.46
2022-09-23T19:54:09.699Z,62.80
2022-09-23T19:56:39.091Z,62.69
2022-09-23T19:59:09.958Z,62.88
2022-09-23T20:01:37.860Z,62.94
2022-09-23T20:04:06.375Z,62.97
2022-09-23T20:06:36.617Z,63.24
2022-09-23T20:09:04.228Z,63.33
2022-09-23T20:11:31.885Z,63.23
2022-09-23T20:14:05.139Z,63.05
2022-09-23T20:16:34.725Z,62.96
2022-09-23T20:19:04.659Z,62.81
2022-09-23T20:21:32.457Z,62.37
2022-09-23T20:24:00.099Z,62.59
2022-09-23T20:26:46.203Z,62.44
2022-09-23T20:29:13.583Z,62.28
2022-09-23T20:31:41.625Z,61.70
2022-09-23T20:34:11.173Z,62.07
2022-09-23T20:36:40.612Z,62.07
2022-09-23T20:39:08.183Z,61.75
2022-09-23T20:41:38.128Z,61.57
2022-09-23T20:44:08.097Z,61.45
2022-09-23T20:46:36.307Z,61.17
2022-09-23T20:49:04.307Z,61.11
2022-09-23T20:51:35.298Z,60.99
2022-09-23T20:54:02.147Z,60.83
2022-09-23T20:56:29.729Z,60.72
2022-09-23T20:59:04.780Z,59.63
2022-09-23T21:01:37.437Z,59.81
2022-09-23T21:04:06.224Z,58.80
2022-09-23T21:06:35.331Z,58.63
2022-09-23T21:09:02.863Z,58.56
2022-09-23T21:11:30.297Z,58.59
2022-09-23T21:13:59.101Z,58.67
2022-09-23T21:16:26.697Z,58.06
2022-09-23T21:18:53.980Z,57.64
2022-09-23T21:21:22.634Z,58.40
2022-09-23T21:23:50.811Z,58.05
2022-09-23T21:26:27.877Z,58.11
2022-09-23T21:29:00.645Z,58.24
2022-09-23T21:31:32.984Z,58.17
2022-09-23T21:34:05.707Z,58.23
2022-09-23T21:36:37.416Z,58.46
2022-09-23T21:39:06.327Z,58.28
2022-09-23T21:41:34.062Z,58.31
2022-09-23T21:44:04.876Z,58.29
2022-09-23T21:46:34.214Z,58.13
2022-09-23T21:49:04.029Z,58.42
2022-09-23T21:51:36.734Z,58.50
2022-09-23T21:54:04.070Z,58.63
2022-09-23T21:56:35.598Z,58.49
2022-09-23T21:59:03.930Z,58.67
2022-09-23T22:01:36.756Z,58.70
2022-09-23T22:04:14.511Z,58.65
2022-09-23T22:06:42.174Z,58.69
2022-09-23T22:09:15.782Z,58.88
2022-09-23T22:12:02.264Z,58.63
2022-09-23T22:14:31.116Z,58.93
2022-09-23T22:17:04.390Z,58.88
2022-09-23T22:19:35.787Z,58.70
2022-09-23T22:22:08.068Z,59.06
2022-09-23T22:24:35.099Z,59.22
2022-09-23T22:27:01.996Z,58.94
2022-09-23T22:29:47.649Z,58.99
2022-09-23T22:32:33.335Z,59.26
2022-09-23T22:35:00.371Z,59.43
2022-09-23T22:37:30.738Z,59.43
2022-09-23T22:39:57.615Z,59.41
2022-09-23T22:42:24.538Z,59.72
2022-09-23T22:44:51.783Z,59.46
2022-09-23T22:47:20.107Z,59.56
2022-09-23T22:49:47.681Z,59.76
2022-09-23T22:52:21.215Z,59.46
2022-09-23T22:54:48.700Z,59.57
2022-09-23T22:57:15.602Z,59.83
2022-09-23T22:59:44.103Z,59.65
2022-09-23T23:02:10.966Z,59.75
2022-09-23T23:04:37.896Z,59.88
2022-09-23T23:07:07.168Z,59.70
2022-09-23T23:09:34.044Z,59.78
2022-09-23T23:12:01.151Z,59.88
2022-09-23T23:14:28.183Z,59.95
2022-09-23T23:16:55.322Z,59.77
2022-09-23T23:19:22.235Z,60.07
2022-09-23T23:21:50.498Z,59.92
2022-09-23T23:24:23.750Z,60.10
2022-09-23T23:26:51.994Z,60.15
2022-09-23T23:29:20.903Z,60.36
2022-09-23T23:31:48.877Z,60.23
2022-09-23T23:34:25.047Z,60.11
2022-09-23T23:36:56.377Z,60.35
2022-09-23T23:39:24.716Z,60.30
2022-09-23T23:41:54.503Z,60.57
2022-09-23T23:44:23.556Z,60.19
2022-09-23T23:46:50.615Z,60.47
2022-09-23T23:49:17.669Z,60.40
2022-09-23T23:51:44.737Z,60.27
2022-09-23T23:54:12.650Z,60.32
2022-09-23T23:56:39.735Z,60.41
2022-09-23T23:59:06.975Z,60.51
